Flight Track Log - Related Links

Times and Time Zones

All times are in EDT time to prevent confusion due to time zone crossing. See the SWA378 flight status page for this flight to view local times or setup timezone preferences in your user account.

Time Position Orientation Groundspeed Altitude Reporting Facility
EDT Latitude Longitude Course Direction KTS MPH feet Rate Location/Type
Thu 08:18:24 PM 36.9517 -76.1506 35° Northeast 216 249 4,000  Level Washington Center
Thu 08:19:25 PM 37.0078 -76.1719 343° North 277 319 4,100 1,059 Climbing Washington Center
Thu 08:20:23 PM 36.9867 -76.2603 253° West 283 326 6,100 2,707 Climbing Washington Center
Thu 08:20:47 PM 36.9739 -76.2939 245° Southwest 284 327 7,800 3,929 Climbing Washington Center
Thu 08:21:47 PM 36.9836 -76.3900 277° West 300 345 11,600 3,328 Climbing Washington Center
Thu 08:22:46 PM 37.0372 -76.5000 301° West 313 360 14,400 2,250 Climbing Washington Center
Thu 08:23:47 PM 37.0947 -76.6203 301° West 360 414 16,100 843 Climbing Washington Center
Thu 08:24:47 PM 37.1519 -76.7411 301° West 389 448 16,100 -50 Level Washington Center
Thu 08:25:47 PM 37.2092 -76.8619 301° West 401 461 16,000  Descending Washington Center
Thu 08:26:48 PM 37.2075 -77.0053 269° West 401 461 16,100  Climbing Washington Center
Thu 08:27:48 PM 37.2058 -77.1486 269° West 407 468 16,000  Descending Washington Center
Thu 08:28:46 PM 37.2586 -77.2619 300° West 385 443 16,100  Climbing Washington Center
Thu 08:29:47 PM 37.3689 -77.2642 359° North 317 365 16,000  Descending Washington Center
Thu 08:30:47 PM 37.4797 -77.2511 North 353 406 16,100  Climbing Washington Center
Thu 08:31:46 PM 37.5883 -77.2378 North 367 422 16,000  Descending Washington Center
Thu 08:32:46 PM 37.6969 -77.2242 North 385 443 16,100 50 Climbing Washington Center
Thu 08:33:47 PM 37.8058 -77.2081 North 391 450 16,100  Level Washington Center
Thu 08:34:48 PM 37.9144 -77.1947 North 391 450 16,100 -50 Level Washington Center
Thu 08:35:48 PM 38.0189 -77.1811 North 381 438 16,000 -51 Descending Washington Center
Thu 08:36:45 PM 38.1192 -77.1700 North 358 412 16,000  Level Washington Center
Thu 08:37:47 PM 38.2172 -77.1564 North 358 412 16,000  Level Washington Center
Thu 08:38:47 PM 38.3069 -77.1503 North 352 405 16,000 -496 Level Washington Center
Thu 08:39:48 PM 38.3992 -77.1178 15° North 347 399 15,000 -1,210 Descending Washington Center
Thu 08:40:46 PM 38.4669 -77.0369 43° Northeast 324 373 13,600 -1,513 Descending Washington Center
Thu 08:41:47 PM 38.5303 -76.9558 45° Northeast 324 373 12,000 -1,140 Descending Washington Center
Thu 08:42:47 PM 38.5981 -76.8800 41° Northeast 318 366 11,300 -942 Descending Washington Center
Thu 08:43:48 PM 38.6550 -76.8067 45° Northeast 312 359 10,100 -1,123 Descending Washington Center
Thu 08:46:10 PM 38.7667 -76.6167 53° Northeast 264 304 7,500 -1,218 Descending Potomac TRACON
Thu 08:47:10 PM 38.8000 -76.5333 63° Northeast 265 305 6,000 -1,550 Descending Potomac TRACON
Thu 08:48:10 PM 38.8833 -76.5500 351° North 274 315 4,400 -952 Descending Potomac TRACON
Thu 08:49:16 PM 38.9500 -76.5833 339° North 265 305 4,000 -200 Descending Potomac TRACON
Thu 08:50:10 PM 39.0000 -76.6500 314° West 282 325 4,000  Level Potomac TRACON
Thu 08:51:10 PM 39.0333 -76.7333 297° West 284 327 4,000  Level Potomac TRACON
Thu 08:52:10 PM 39.0667 -76.8167 297° West 258 297 4,000 -198 Level Potomac TRACON
Thu 08:53:11 PM 39.1167 -76.8667 322° Northwest 196 226 3,600 -472 Descending Potomac TRACON
Thu 08:54:17 PM 39.1667 -76.8667 360° North 181 208 3,000 -667 Descending Potomac TRACON
Thu 08:55:17 PM 39.1833 -76.8167 67° East 172 198 2,200 -850 Descending Potomac TRACON
Thu 08:56:17 PM 39.1833 -76.7667 90° East 154 177 1,300 -762 Descending Potomac TRACON
Thu 08:57:23 PM 39.1833 -76.7167 90° East 121 139 600 -636 Descending Potomac TRACON
Thu 08:59:00 PM 39.1754 -76.6683 North  Level Estimated
Thu 09:06:00 PM 39.1754 -76.6683 351° North  Level Estimated
Thu 09:07:00 PM 39.1754 -76.6683 351° North  Level Estimated

Login

Don't have an account? Register now (free) for customized features, flight alerts, and more!